Time;durP1;ratioP1;P1;durP2;ratioP2;P2;SDS_P1;SDS_P2;PMS_P1;PMS_P2;Temp;Humidity;BMP_temperature;BMP_pressure;BME280_temperature;BME280_humidity;BME280_pressure;Samples;Min_cycle;Max_cycle;Signal;HPM_P1;HPM_P2
2024/01/16 00:01:27;;;;;;;13.18;6.93;;;-0.50;99.90;;;;;;5036585;28;20048;-38
2024/01/16 00:03:54;;;;;;;13.18;7.15;;;-0.50;99.90;;;;;;5035163;28;20056;-39
2024/01/16 00:06:21;;;;;;;13.07;6.93;;;-0.50;99.90;;;;;;5035149;28;20096;-42
2024/01/16 00:08:48;;;;;;;10.15;6.78;;;-0.50;99.90;;;;;;5037430;28;20096;-41
2024/01/16 00:11:15;;;;;;;11.60;7.35;;;-0.50;99.90;;;;;;5035512;28;20528;-39
2024/01/16 00:13:42;;;;;;;12.00;6.63;;;-0.40;99.90;;;;;;5036782;28;20033;-39
2024/01/16 00:16:09;;;;;;;14.95;7.47;;;-0.50;99.90;;;;;;5037443;28;20060;-38
2024/01/16 00:18:36;;;;;;;13.43;7.57;;;-0.50;99.90;;;;;;5035169;28;20041;-38
2024/01/16 00:21:04;;;;;;;11.65;6.32;;;-0.50;99.90;;;;;;5036949;28;20044;-40
2024/01/16 00:23:34;;;;;;;13.65;7.53;;;-0.50;99.90;;;;;;5032783;28;20564;-40
2024/01/16 00:26:01;;;;;;;11.70;6.95;;;-0.60;99.90;;;;;;5033453;28;20045;-38
2024/01/16 00:28:28;;;;;;;10.52;6.55;;;-0.50;99.90;;;;;;5032109;28;20132;-40
2024/01/16 00:30:55;;;;;;;10.88;6.72;;;-0.50;99.90;;;;;;5033739;28;20053;-38
2024/01/16 00:33:22;;;;;;;9.77;6.47;;;-0.50;99.90;;;;;;5028046;28;20045;-38
2024/01/16 00:35:49;;;;;;;12.70;7.03;;;-0.50;99.90;;;;;;5033295;28;20052;-41
2024/01/16 00:38:16;;;;;;;13.48;6.90;;;-0.50;99.90;;;;;;5031473;28;20029;-39
2024/01/16 00:40:43;;;;;;;14.60;6.38;;;-0.50;99.90;;;;;;5032284;28;20530;-38
2024/01/16 00:43:10;;;;;;;15.20;6.72;;;-0.50;99.90;;;;;;5031093;28;20510;-38
2024/01/16 00:45:36;;;;;;;12.82;6.28;;;-0.50;99.90;;;;;;5032294;28;20211;-37
2024/01/16 00:48:05;;;;;;;14.82;7.63;;;-0.50;99.90;;;;;;5032982;28;20041;-42
2024/01/16 00:50:32;;;;;;;12.50;6.47;;;-0.60;99.90;;;;;;5031752;28;20084;-38
2024/01/16 00:52:59;;;;;;;12.45;6.82;;;-0.60;99.90;;;;;;5032952;28;20053;-38
2024/01/16 00:55:26;;;;;;;11.73;6.82;;;-0.50;99.90;;;;;;5030779;28;20113;-40
2024/01/16 00:57:53;;;;;;;10.05;6.00;;;-0.60;99.90;;;;;;5031219;28;20052;-39
2024/01/16 01:00:20;;;;;;;14.57;6.88;;;-0.60;99.90;;;;;;5031466;28;20168;-38
2024/01/16 01:02:47;;;;;;;12.50;6.32;;;-0.60;99.90;;;;;;5032288;28;20069;-41
2024/01/16 01:05:14;;;;;;;14.95;6.82;;;-0.60;99.90;;;;;;5031521;28;20061;-38
2024/01/16 01:07:41;;;;;;;14.65;7.20;;;-0.70;99.90;;;;;;5031357;28;20155;-39
2024/01/16 01:10:09;;;;;;;12.98;6.85;;;-0.70;99.90;;;;;;5035641;28;20049;-38
2024/01/16 01:12:36;;;;;;;8.70;5.68;;;-0.60;99.90;;;;;;5030334;28;20041;-41
2024/01/16 01:15:03;;;;;;;12.45;6.80;;;-0.70;99.90;;;;;;5032074;28;20567;-37
2024/01/16 01:17:30;;;;;;;10.18;6.55;;;-0.60;99.90;;;;;;5029973;28;20123;-39
2024/01/16 01:19:57;;;;;;;12.45;6.53;;;-0.60;99.90;;;;;;5031204;28;20562;-41
2024/01/16 01:22:24;;;;;;;12.77;7.10;;;-0.60;99.90;;;;;;5032308;28;20045;-41
2024/01/16 01:24:51;;;;;;;14.05;7.32;;;-0.60;99.90;;;;;;5032261;28;20219;-39
2024/01/16 01:27:17;;;;;;;11.77;6.82;;;-0.60;99.90;;;;;;5031035;28;20111;-38
2024/01/16 01:29:44;;;;;;;12.30;6.95;;;-0.60;99.90;;;;;;5031151;28;20061;-39
2024/01/16 01:32:11;;;;;;;11.45;7.45;;;-0.70;99.90;;;;;;5031377;28;20467;-39
2024/01/16 01:34:41;;;;;;;14.75;7.32;;;-0.60;99.90;;;;;;5032060;28;20037;-39
2024/01/16 01:37:08;;;;;;;13.40;7.32;;;-0.70;99.90;;;;;;5030041;28;20037;-40
2024/01/16 01:39:35;;;;;;;14.25;7.05;;;-0.70;99.90;;;;;;5030632;28;20128;-41
2024/01/16 01:42:02;;;;;;;15.00;7.25;;;-0.70;99.90;;;;;;5030343;28;20489;-40
2024/01/16 01:44:29;;;;;;;13.20;8.57;;;-0.70;99.90;;;;;;5031139;28;20077;-40
2024/01/16 01:46:56;;;;;;;14.55;7.85;;;-0.70;99.90;;;;;;5032249;28;20490;-47
2024/01/16 01:49:26;;;;;;;11.95;8.02;;;-0.70;99.90;;;;;;5029485;28;20160;-40
2024/01/16 01:51:54;;;;;;;14.07;7.35;;;-0.80;99.90;;;;;;5033785;28;20045;-38
2024/01/16 01:54:24;;;;;;;11.93;7.90;;;-0.70;99.90;;;;;;5028971;28;20524;-40
2024/01/16 01:56:51;;;;;;;13.70;7.70;;;-0.70;99.90;;;;;;5032636;28;20477;-38
2024/01/16 01:59:19;;;;;;;13.50;7.90;;;-0.70;99.90;;;;;;5029109;28;20121;-39
2024/01/16 02:01:48;;;;;;;16.40;8.30;;;-0.70;99.90;;;;;;5031614;28;20116;-38
2024/01/16 02:04:16;;;;;;;11.70;7.47;;;-0.70;99.90;;;;;;5029321;28;20068;-38
2024/01/16 02:06:44;;;;;;;13.40;7.53;;;-0.70;99.90;;;;;;5031072;28;20045;-39
2024/01/16 02:09:13;;;;;;;16.83;8.25;;;-0.70;99.90;;;;;;5031097;28;20223;-38
2024/01/16 02:11:41;;;;;;;13.45;7.95;;;-0.70;99.90;;;;;;5029840;28;20045;-40
2024/01/16 02:14:08;;;;;;;12.82;8.18;;;-0.70;99.90;;;;;;5030140;28;20044;-40
2024/01/16 02:16:45;;;;;;;16.70;7.90;;;-0.70;99.90;;;;;;5028583;28;20107;-38
2024/01/16 02:19:12;;;;;;;17.60;8.48;;;-0.70;99.90;;;;;;5025947;28;20053;-40
2024/01/16 02:21:43;;;;;;;15.70;8.38;;;-0.70;99.90;;;;;;5027497;28;20045;-41
2024/01/16 02:24:16;;;;;;;12.93;7.70;;;-0.80;99.90;;;;;;5027772;28;20502;-42
2024/01/16 02:26:43;;;;;;;18.25;7.82;;;-0.80;99.90;;;;;;5030371;28;20052;-40
2024/01/16 02:29:10;;;;;;;13.38;8.18;;;-0.80;99.90;;;;;;5032928;28;20620;-40
2024/01/16 02:31:37;;;;;;;13.45;8.05;;;-0.80;99.90;;;;;;5031255;28;20065;-41
2024/01/16 02:34:04;;;;;;;13.05;8.10;;;-0.80;99.90;;;;;;5028481;28;20700;-41
2024/01/16 02:36:32;;;;;;;16.58;9.45;;;-0.70;99.90;;;;;;5029915;28;20119;-39
2024/01/16 02:38:59;;;;;;;15.90;8.73;;;-0.80;99.90;;;;;;5030654;28;20654;-40
2024/01/16 02:41:26;;;;;;;15.57;8.73;;;-0.80;99.90;;;;;;5029906;28;20029;-39
2024/01/16 02:43:53;;;;;;;12.85;7.90;;;-0.70;99.90;;;;;;5024157;28;20042;-40
2024/01/16 02:46:20;;;;;;;14.73;8.43;;;-0.80;99.90;;;;;;5029018;28;20059;-45
2024/01/16 02:48:47;;;;;;;17.10;8.13;;;-0.80;99.90;;;;;;5028091;28;20137;-42
2024/01/16 02:51:15;;;;;;;20.20;8.70;;;-0.80;99.90;;;;;;5029493;28;20299;-39
2024/01/16 02:53:42;;;;;;;13.23;7.82;;;-0.80;99.90;;;;;;5029899;28;20566;-41
2024/01/16 02:56:09;;;;;;;16.67;8.10;;;-0.80;99.90;;;;;;5031932;28;20485;-43
2024/01/16 02:58:36;;;;;;;15.73;8.13;;;-0.70;99.90;;;;;;5036535;28;20304;-39
2024/01/16 03:01:03;;;;;;;14.18;8.57;;;-0.80;99.90;;;;;;5036475;28;20120;-39
2024/01/16 03:03:31;;;;;;;16.65;9.32;;;-0.70;99.90;;;;;;5038257;28;20053;-38
2024/01/16 03:05:59;;;;;;;11.95;7.90;;;-0.70;99.90;;;;;;5035740;28;20045;-40
2024/01/16 03:08:26;;;;;;;16.67;7.75;;;-0.60;99.90;;;;;;5038910;28;20049;-42
2024/01/16 03:10:53;;;;;;;13.32;8.27;;;-0.70;99.90;;;;;;5035686;28;20046;-42
2024/01/16 03:13:20;;;;;;;14.73;8.30;;;-0.70;99.90;;;;;;5033139;28;20037;-39
2024/01/16 03:15:47;;;;;;;19.17;8.13;;;-0.80;99.90;;;;;;5031150;28;20103;-44
2024/01/16 03:18:14;;;;;;;12.43;7.85;;;-0.70;99.90;;;;;;5031014;28;20741;-40
2024/01/16 03:20:41;;;;;;;13.82;8.10;;;-0.70;99.90;;;;;;5031634;28;20337;-40
2024/01/16 03:23:08;;;;;;;15.60;8.50;;;-0.70;99.90;;;;;;5035214;28;20060;-39
2024/01/16 03:25:38;;;;;;;12.57;7.85;;;-0.80;99.90;;;;;;5034850;28;20048;-42
2024/01/16 03:28:07;;;;;;;15.38;8.65;;;-0.80;99.90;;;;;;5030004;28;20049;-39
2024/01/16 03:30:35;;;;;;;14.75;7.70;;;-0.80;99.90;;;;;;5034420;28;20060;-40
2024/01/16 03:33:03;;;;;;;13.90;8.13;;;-0.80;99.90;;;;;;5033764;28;20041;-39
2024/01/16 03:35:30;;;;;;;14.10;8.45;;;-0.80;99.90;;;;;;5032545;28;20067;-39
2024/01/16 03:37:57;;;;;;;16.33;8.45;;;-0.80;99.90;;;;;;5032437;28;20055;-41
2024/01/16 03:40:24;;;;;;;15.65;8.55;;;-0.80;99.90;;;;;;5032286;28;20593;-41
2024/01/16 03:42:51;;;;;;;14.38;8.40;;;-0.80;99.90;;;;;;5039127;28;20129;-38
2024/01/16 03:45:18;;;;;;;16.17;8.95;;;-0.80;99.90;;;;;;5039829;28;20061;-39
2024/01/16 03:47:45;;;;;;;16.42;8.60;;;-0.80;99.90;;;;;;5041281;28;20053;-38
2024/01/16 03:50:12;;;;;;;20.90;9.27;;;-0.80;99.90;;;;;;5039898;28;20073;-38
2024/01/16 03:52:39;;;;;;;15.15;8.50;;;-0.80;99.90;;;;;;5040084;28;20045;-41
2024/01/16 03:55:06;;;;;;;17.13;8.43;;;-0.80;99.90;;;;;;5035283;28;20414;-38
2024/01/16 03:57:33;;;;;;;15.98;9.40;;;-0.80;99.90;;;;;;5039366;28;20056;-40
2024/01/16 04:00:00;;;;;;;18.77;9.50;;;-0.80;99.90;;;;;;5037246;28;20060;-39
2024/01/16 04:02:27;;;;;;;17.15;8.90;;;-0.80;99.90;;;;;;5038115;28;20045;-39
2024/01/16 04:04:54;;;;;;;14.23;8.57;;;-0.80;99.90;;;;;;5030868;28;20056;-41
2024/01/16 04:07:23;;;;;;;19.15;9.23;;;-0.80;99.90;;;;;;5037370;28;20033;-39
2024/01/16 04:09:50;;;;;;;14.50;7.78;;;-0.80;99.90;;;;;;5038583;28;20487;-38
2024/01/16 04:12:17;;;;;;;15.32;9.18;;;-0.80;99.90;;;;;;5027126;28;20060;-40
2024/01/16 04:14:44;;;;;;;14.40;8.93;;;-0.80;99.90;;;;;;5036888;28;20045;-39
2024/01/16 04:17:11;;;;;;;14.90;9.00;;;-0.80;99.90;;;;;;5037893;28;20041;-38
2024/01/16 04:19:39;;;;;;;15.88;8.75;;;-0.80;99.90;;;;;;5039796;28;20045;-39
2024/01/16 04:22:06;;;;;;;16.52;8.95;;;-0.80;99.90;;;;;;5037165;28;20047;-41
2024/01/16 04:24:33;;;;;;;17.23;8.52;;;-0.90;99.90;;;;;;5031745;28;20050;-40
2024/01/16 04:27:00;;;;;;;14.43;7.85;;;-0.80;99.90;;;;;;5034701;28;20045;-41
2024/01/16 04:29:27;;;;;;;17.52;8.90;;;-0.80;99.90;;;;;;5035180;28;20049;-39
2024/01/16 04:31:54;;;;;;;16.88;8.77;;;-0.80;99.90;;;;;;5033030;28;20399;-43
2024/01/16 04:34:21;;;;;;;15.45;8.05;;;-0.80;99.90;;;;;;5033950;28;20577;-39
2024/01/16 04:36:48;;;;;;;17.65;8.70;;;-0.80;99.90;;;;;;5034156;28;20049;-38
2024/01/16 04:39:15;;;;;;;15.57;8.63;;;-0.90;99.90;;;;;;5032318;28;20045;-41
2024/01/16 04:41:42;;;;;;;16.77;7.97;;;-0.80;99.90;;;;;;5029604;28;20533;-45
2024/01/16 04:44:09;;;;;;;13.93;8.40;;;-0.90;99.90;;;;;;5032145;28;20132;-39
2024/01/16 04:46:36;;;;;;;19.33;9.27;;;-0.90;99.90;;;;;;5029140;28;20076;-42
2024/01/16 04:49:03;;;;;;;18.90;9.00;;;-0.90;99.90;;;;;;5033621;28;20041;-38
2024/01/16 04:51:29;;;;;;;16.33;8.38;;;-0.90;99.90;;;;;;5032951;28;20079;-39
2024/01/16 04:53:56;;;;;;;20.02;8.48;;;-0.90;99.90;;;;;;5032705;28;20053;-39
2024/01/16 04:56:23;;;;;;;15.82;8.52;;;-0.90;99.90;;;;;;5031332;28;20040;-43
2024/01/16 04:58:52;;;;;;;13.55;8.70;;;-0.90;99.90;;;;;;5025902;28;20136;-39
2024/01/16 05:01:19;;;;;;;19.65;8.93;;;-0.90;99.90;;;;;;5030120;28;20224;-39
2024/01/16 05:03:46;;;;;;;15.18;8.88;;;-0.90;99.90;;;;;;5029575;28;20491;-38
2024/01/16 05:06:14;;;;;;;18.10;9.45;;;-0.90;99.90;;;;;;5029054;28;20116;-38
2024/01/16 05:08:42;;;;;;;17.85;8.50;;;-0.90;99.90;;;;;;5032870;28;20091;-37
2024/01/16 05:11:09;;;;;;;16.20;8.52;;;-0.90;99.90;;;;;;5030271;28;20045;-39
2024/01/16 05:13:36;;;;;;;13.13;8.13;;;-0.80;99.90;;;;;;5029692;28;20053;-42
2024/01/16 05:16:04;;;;;;;13.57;8.80;;;-0.90;99.90;;;;;;5028706;28;20041;-37
2024/01/16 05:18:32;;;;;;;14.20;8.18;;;-0.90;99.90;;;;;;5028039;28;20095;-37
2024/01/16 05:20:59;;;;;;;15.52;8.73;;;-0.90;99.90;;;;;;5030044;28;20041;-37
2024/01/16 05:23:27;;;;;;;15.32;7.90;;;-1.00;99.90;;;;;;5031794;28;20037;-38
2024/01/16 05:25:54;;;;;;;17.98;8.88;;;-1.00;99.90;;;;;;5034289;28;20061;-42
2024/01/16 05:28:21;;;;;;;18.42;9.15;;;-1.00;99.90;;;;;;5030905;28;20045;-40
2024/01/16 05:30:48;;;;;;;17.30;8.98;;;-1.00;99.90;;;;;;5032664;28;20045;-42
2024/01/16 05:33:15;;;;;;;15.65;8.80;;;-1.00;99.90;;;;;;5027997;28;20111;-40
2024/01/16 05:35:43;;;;;;;17.75;9.57;;;-1.10;99.90;;;;;;5033365;28;20104;-39
2024/01/16 05:38:12;;;;;;;15.20;8.70;;;-1.10;99.90;;;;;;5033403;28;20160;-40
2024/01/16 05:40:39;;;;;;;17.52;9.10;;;-1.20;99.90;;;;;;5027066;28;20051;-40
2024/01/16 05:43:06;;;;;;;16.27;9.07;;;-1.20;99.90;;;;;;5038121;28;20045;-39
2024/01/16 05:45:33;;;;;;;20.05;9.13;;;-1.30;99.90;;;;;;5033868;28;20430;-40
2024/01/16 05:48:00;;;;;;;19.08;9.63;;;-1.30;99.90;;;;;;5038918;28;20049;-40
2024/01/16 05:50:30;;;;;;;18.52;8.63;;;-1.30;99.90;;;;;;5034433;28;20380;-45
2024/01/16 05:52:58;;;;;;;15.23;9.13;;;-1.30;99.90;;;;;;5034330;28;20087;-42
2024/01/16 05:55:26;;;;;;;17.27;8.80;;;-1.30;99.90;;;;;;5031940;28;20055;-39
2024/01/16 05:57:53;;;;;;;18.02;8.80;;;-1.40;99.90;;;;;;5030981;28;20048;-42
2024/01/16 06:00:22;;;;;;;20.83;9.25;;;-1.30;99.90;;;;;;5032619;28;20413;-41
2024/01/16 06:02:49;;;;;;;17.13;9.68;;;-1.40;99.90;;;;;;5033280;28;20199;-41
2024/01/16 06:05:16;;;;;;;21.88;9.52;;;-1.40;99.90;;;;;;5025186;28;20124;-38
2024/01/16 06:07:43;;;;;;;20.92;9.90;;;-1.40;99.90;;;;;;5030913;28;20053;-37
2024/01/16 06:10:13;;;;;;;16.42;9.25;;;-1.40;99.90;;;;;;5035861;28;20128;-41
2024/01/16 06:12:41;;;;;;;17.23;9.48;;;-1.50;99.90;;;;;;5030702;28;20067;-40
2024/01/16 06:15:09;;;;;;;20.80;9.85;;;-1.40;99.90;;;;;;5033162;28;20056;-38
2024/01/16 06:17:38;;;;;;;19.60;9.45;;;-1.50;99.90;;;;;;5028814;28;20957;-40
2024/01/16 06:20:06;;;;;;;18.52;9.40;;;-1.40;99.90;;;;;;5029558;28;20056;-39
2024/01/16 06:22:33;;;;;;;19.77;9.63;;;-1.40;99.90;;;;;;5033084;28;20051;-40
2024/01/16 06:25:02;;;;;;;19.38;9.35;;;-1.40;99.90;;;;;;5034750;28;20049;-38
2024/01/16 06:27:29;;;;;;;17.35;9.27;;;-1.30;99.90;;;;;;5032385;28;20172;-41
2024/01/16 06:29:55;;;;;;;18.65;10.00;;;-1.30;99.90;;;;;;5032611;28;20077;-40
2024/01/16 06:32:22;;;;;;;15.80;9.55;;;-1.30;99.90;;;;;;5030178;28;20072;-40
2024/01/16 06:34:50;;;;;;;17.38;9.82;;;-1.20;99.90;;;;;;5031100;28;20069;-42
2024/01/16 06:37:17;;;;;;;17.35;9.48;;;-1.20;99.90;;;;;;5030138;28;20049;-42
2024/01/16 06:39:44;;;;;;;16.15;9.32;;;-1.20;99.90;;;;;;5029042;28;20469;-41
2024/01/16 06:42:11;;;;;;;19.27;10.05;;;-1.20;99.90;;;;;;5033402;28;20068;-40
2024/01/16 06:44:38;;;;;;;16.90;9.18;;;-1.20;99.90;;;;;;5035338;28;20140;-38
2024/01/16 06:47:05;;;;;;;16.52;9.88;;;-1.20;99.90;;;;;;5035264;28;20048;-38
2024/01/16 06:49:32;;;;;;;17.50;9.77;;;-1.10;99.90;;;;;;5034654;28;20067;-41
2024/01/16 06:51:59;;;;;;;18.92;10.00;;;-1.10;99.90;;;;;;5039128;28;20103;-41
2024/01/16 06:54:26;;;;;;;19.10;9.50;;;-1.10;99.90;;;;;;5033588;28;20495;-41
2024/01/16 06:56:53;;;;;;;20.20;10.63;;;-1.10;99.90;;;;;;5034153;28;20045;-42
2024/01/16 06:59:21;;;;;;;16.00;9.77;;;-1.10;99.90;;;;;;5032641;28;20557;-40
2024/01/16 07:01:48;;;;;;;20.02;10.02;;;-1.10;99.90;;;;;;5036052;28;20046;-46
2024/01/16 07:04:15;;;;;;;19.35;10.38;;;-1.10;99.90;;;;;;5035106;28;20064;-40
2024/01/16 07:06:43;;;;;;;18.60;9.38;;;-1.10;99.90;;;;;;5034272;28;20208;-36
2024/01/16 07:09:10;;;;;;;19.08;9.68;;;-1.10;99.90;;;;;;5037503;28;20587;-44
2024/01/16 07:11:38;;;;;;;19.60;10.27;;;-1.20;99.90;;;;;;5030772;28;20070;-38
2024/01/16 07:14:07;;;;;;;19.08;10.15;;;-1.10;99.90;;;;;;5037060;28;20060;-41
2024/01/16 07:16:35;;;;;;;20.13;10.00;;;-1.10;99.90;;;;;;5038380;28;20041;-45
2024/01/16 07:19:02;;;;;;;18.48;9.95;;;-1.20;99.90;;;;;;5035482;28;20059;-41
2024/01/16 07:21:30;;;;;;;21.27;9.77;;;-1.20;99.90;;;;;;5039143;28;20041;-43
2024/01/16 07:23:57;;;;;;;19.25;10.25;;;-1.20;99.90;;;;;;5048336;28;20538;-42
2024/01/16 07:26:24;;;;;;;18.70;9.68;;;-1.20;99.90;;;;;;5039108;28;20069;-42
2024/01/16 07:28:52;;;;;;;19.92;10.38;;;-1.20;99.90;;;;;;5034439;28;20049;-45
2024/01/16 07:31:19;;;;;;;15.25;9.60;;;-1.20;99.90;;;;;;5032000;28;20049;-41
2024/01/16 07:33:46;;;;;;;18.70;10.35;;;-1.20;99.90;;;;;;5030291;28;20148;-41
2024/01/16 07:36:13;;;;;;;18.77;9.73;;;-1.10;99.90;;;;;;5033802;28;20082;-38
2024/01/16 07:38:40;;;;;;;17.77;9.50;;;-1.00;99.90;;;;;;5036241;28;20292;-39
2024/01/16 07:41:07;;;;;;;15.80;9.35;;;-1.00;99.90;;;;;;5033010;28;20504;-42
2024/01/16 07:43:35;;;;;;;21.88;10.73;;;-1.00;99.90;;;;;;5031549;28;20045;-36
2024/01/16 07:46:02;;;;;;;18.67;9.82;;;-0.90;99.90;;;;;;5030137;28;20100;-39
2024/01/16 07:48:29;;;;;;;19.67;10.40;;;-0.90;99.90;;;;;;5027526;28;20081;-38
2024/01/16 07:50:57;;;;;;;15.55;9.50;;;-0.90;99.90;;;;;;5030087;28;20045;-40
2024/01/16 07:53:27;;;;;;;19.23;10.00;;;-0.70;99.90;;;;;;5029978;28;20038;-39
2024/01/16 07:55:54;;;;;;;25.02;10.65;;;-0.70;99.90;;;;;;5037561;28;20391;-40
2024/01/16 07:58:22;;;;;;;24.13;9.40;;;-0.70;99.90;;;;;;5033140;28;20072;-40
2024/01/16 08:00:49;;;;;;;19.88;10.32;;;-0.80;99.90;;;;;;5028605;28;20041;-40
2024/01/16 08:03:16;;;;;;;16.88;9.55;;;-0.80;99.90;;;;;;5029755;28;20623;-39
2024/01/16 08:05:43;;;;;;;15.38;8.77;;;-0.70;99.90;;;;;;5030171;28;20061;-42
2024/01/16 08:08:11;;;;;;;21.48;10.18;;;-0.70;99.90;;;;;;5029028;28;20114;-42
2024/01/16 08:10:42;;;;;;;22.23;10.00;;;-0.70;99.90;;;;;;5027925;28;20087;-43
2024/01/16 08:13:09;;;;;;;18.02;9.88;;;-0.60;99.90;;;;;;5029846;28;20053;-39
2024/01/16 08:15:36;;;;;;;18.73;9.48;;;-0.60;99.90;;;;;;5030269;28;20414;-43
2024/01/16 08:18:04;;;;;;;18.63;9.48;;;-0.60;99.90;;;;;;5035480;28;20053;-40
2024/01/16 08:20:31;;;;;;;16.98;8.90;;;-0.60;99.90;;;;;;5032241;28;20047;-38
2024/01/16 08:22:59;;;;;;;18.08;9.43;;;-0.60;99.90;;;;;;5035778;28;20103;-37
2024/01/16 08:25:26;;;;;;;18.58;9.25;;;-0.40;99.90;;;;;;5035015;28;20149;-41
2024/01/16 08:27:53;;;;;;;18.17;9.32;;;-0.30;99.90;;;;;;5034367;28;20064;-43
2024/01/16 08:30:20;;;;;;;17.58;9.63;;;-0.30;99.90;;;;;;5033088;28;20708;-39
2024/01/16 08:32:47;;;;;;;18.08;9.93;;;-0.40;99.90;;;;;;5034428;28;20053;-39
2024/01/16 08:35:14;;;;;;;18.50;10.25;;;-0.30;99.90;;;;;;5032598;28;20095;-45
2024/01/16 08:37:41;;;;;;;18.05;8.82;;;-0.20;99.90;;;;;;5033499;28;20049;-42
2024/01/16 08:40:08;;;;;;;17.15;9.15;;;0.00;99.90;;;;;;5030191;28;20095;-40
2024/01/16 08:42:35;;;;;;;18.45;8.80;;;0.00;99.90;;;;;;5043935;28;20200;-42
2024/01/16 08:45:03;;;;;;;19.77;8.80;;;0.00;99.90;;;;;;5042617;28;20053;-40
2024/01/16 08:47:30;;;;;;;17.05;8.77;;;-0.10;99.90;;;;;;5035996;28;20073;-38
2024/01/16 08:49:57;;;;;;;16.83;9.65;;;0.00;99.90;;;;;;5030908;28;20049;-40
2024/01/16 08:52:24;;;;;;;20.23;9.40;;;0.10;99.90;;;;;;5032899;28;20125;-41
2024/01/16 08:54:51;;;;;;;16.42;8.93;;;0.20;99.90;;;;;;5030507;28;20077;-42
2024/01/16 08:57:18;;;;;;;16.85;8.90;;;0.40;99.90;;;;;;5032648;28;20061;-38
2024/01/16 08:59:46;;;;;;;17.17;8.50;;;0.40;99.90;;;;;;5032642;28;20053;-39
2024/01/16 09:02:13;;;;;;;15.40;9.30;;;0.30;99.90;;;;;;5033983;28;20116;-40
2024/01/16 09:04:41;;;;;;;17.63;9.13;;;0.20;99.90;;;;;;5030309;28;20052;-38
2024/01/16 09:07:08;;;;;;;17.27;9.25;;;0.20;99.90;;;;;;5034092;28;20056;-40
2024/01/16 09:09:35;;;;;;;13.60;8.50;;;0.40;99.90;;;;;;5031791;28;20045;-40
2024/01/16 09:12:03;;;;;;;16.13;10.25;;;0.30;99.90;;;;;;5034143;28;20135;-40
2024/01/16 09:14:30;;;;;;;17.58;9.02;;;0.20;99.90;;;;;;5027099;28;20045;-39
2024/01/16 09:16:57;;;;;;;15.73;8.82;;;0.30;99.90;;;;;;5030490;28;20055;-46
2024/01/16 09:19:24;;;;;;;13.95;8.55;;;0.40;99.90;;;;;;5031779;28;20517;-40
2024/01/16 09:21:53;;;;;;;21.35;9.68;;;0.50;99.90;;;;;;5031690;28;20513;-39
2024/01/16 09:24:20;;;;;;;15.10;8.93;;;0.50;99.90;;;;;;5031165;28;20057;-40
2024/01/16 09:26:48;;;;;;;16.95;9.32;;;0.70;99.90;;;;;;5031218;28;20072;-40
2024/01/16 09:29:16;;;;;;;16.85;9.18;;;0.90;99.90;;;;;;5027615;28;20072;-40
2024/01/16 09:31:43;;;;;;;17.27;9.18;;;0.70;99.90;;;;;;5031092;28;20059;-43
2024/01/16 09:34:13;;;;;;;13.82;8.55;;;0.70;99.90;;;;;;5032949;28;20068;-38
2024/01/16 09:36:40;;;;;;;15.63;8.43;;;0.70;99.90;;;;;;5031439;28;20218;-47
2024/01/16 09:39:08;;;;;;;12.88;8.65;;;0.90;99.90;;;;;;5033219;28;20182;-39
2024/01/16 09:41:42;;;;;;;19.08;9.07;;;0.50;99.90;;;;;;5022658;28;20128;-42
2024/01/16 09:44:09;;;;;;;18.25;9.05;;;0.60;99.90;;;;;;5033804;28;20048;-40
2024/01/16 09:46:38;;;;;;;15.55;8.77;;;0.40;99.90;;;;;;5037477;28;20057;-41
2024/01/16 09:49:05;;;;;;;17.20;8.77;;;0.40;99.90;;;;;;5030130;28;20096;-41
2024/01/16 09:51:33;;;;;;;18.77;9.23;;;0.50;99.90;;;;;;5031973;28;20057;-45
2024/01/16 09:54:01;;;;;;;16.33;9.48;;;0.70;99.90;;;;;;5033275;28;20061;-39
2024/01/16 09:56:30;;;;;;;14.90;9.00;;;0.70;99.90;;;;;;5028359;28;20042;-38
2024/01/16 09:59:01;;;;;;;16.58;9.40;;;0.90;99.90;;;;;;5030736;28;20553;-39
2024/01/16 10:01:29;;;;;;;13.57;8.95;;;1.00;99.90;;;;;;5033043;28;20071;-40
2024/01/16 10:03:56;;;;;;;17.85;9.77;;;0.90;99.90;;;;;;5031771;28;20575;-40
2024/01/16 10:06:26;;;;;;;17.30;9.55;;;0.90;99.90;;;;;;5026877;28;20140;-41
2024/01/16 10:08:53;;;;;;;15.13;8.82;;;0.90;99.90;;;;;;5033748;28;20068;-41
2024/01/16 10:11:20;;;;;;;16.85;8.90;;;1.00;99.90;;;;;;5019525;28;20417;-38
2024/01/16 10:13:47;;;;;;;17.10;9.40;;;0.90;99.90;;;;;;5029900;28;20446;-39
2024/01/16 10:16:17;;;;;;;15.43;8.98;;;0.90;99.90;;;;;;5022488;28;20677;-40
2024/01/16 10:18:46;;;;;;;17.67;8.73;;;0.80;99.90;;;;;;5031080;28;20046;-43
2024/01/16 10:21:22;;;;;;;16.08;10.13;;;0.70;99.90;;;;;;5031136;28;20096;-41
2024/01/16 10:23:50;;;;;;;19.27;9.20;;;0.80;99.90;;;;;;5031451;28;20709;-38
2024/01/16 10:26:18;;;;;;;14.60;9.10;;;1.00;99.90;;;;;;5029220;28;20425;-40
2024/01/16 10:28:46;;;;;;;18.75;9.27;;;1.00;99.90;;;;;;5036175;28;20090;-43
2024/01/16 10:31:16;;;;;;;12.90;8.45;;;1.00;99.90;;;;;;5023625;28;20048;-40
2024/01/16 10:33:43;;;;;;;15.45;8.52;;;0.70;99.90;;;;;;5031602;28;20053;-40
2024/01/16 10:36:14;;;;;;;15.52;9.05;;;0.60;99.90;;;;;;5027198;28;20044;-41
2024/01/16 10:38:43;;;;;;;15.35;8.95;;;0.70;99.90;;;;;;5030078;28;20057;-41
2024/01/16 10:41:17;;;;;;;14.57;8.52;;;0.80;99.90;;;;;;5031393;28;20048;-40
2024/01/16 10:43:45;;;;;;;17.77;8.68;;;0.80;99.90;;;;;;5028813;28;20049;-43
2024/01/16 10:46:15;;;;;;;16.50;9.00;;;0.90;99.90;;;;;;5030484;28;20037;-40
2024/01/16 10:48:44;;;;;;;20.35;8.68;;;0.90;99.90;;;;;;5035155;28;20077;-40
2024/01/16 10:51:15;;;;;;;15.60;8.48;;;0.80;99.90;;;;;;5035534;28;20514;-40
2024/01/16 10:53:46;;;;;;;27.63;9.80;;;0.90;99.90;;;;;;5029322;28;20415;-40
2024/01/16 10:56:15;;;;;;;;;;;1.00;99.90;;;;;;5030308;28;20452;-38
2024/01/16 10:58:43;;;;;;;16.88;8.35;;;0.90;99.90;;;;;;5029654;28;19964;-44
2024/01/16 11:01:17;;;;;;;16.25;8.68;;;1.00;99.90;;;;;;5029906;28;20048;-40
2024/01/16 11:03:49;;;;;;;15.32;8.80;;;1.00;99.90;;;;;;5025781;28;20045;-41
2024/01/16 11:06:17;;;;;;;;;;;1.20;99.90;;;;;;5028892;28;20061;-39
2024/01/16 11:08:48;;;;;;;12.38;7.72;;;1.30;99.90;;;;;;5028120;28;19979;-41
2024/01/16 11:11:16;;;;;;;20.23;9.13;;;1.40;99.90;;;;;;5030378;28;20046;-39
2024/01/16 11:13:46;;;;;;;14.23;7.65;;;1.50;99.90;;;;;;5031578;28;20049;-42
2024/01/16 11:16:14;;;;;;;18.60;7.88;;;1.60;99.90;;;;;;5026162;28;20037;-40
2024/01/16 11:18:41;;;;;;;17.55;9.07;;;1.60;99.90;;;;;;5030410;28;20045;-39
2024/01/16 11:21:16;;;;;;;16.52;8.20;;;1.70;99.90;;;;;;5035493;28;20051;-39
2024/01/16 11:23:46;;;;;;;16.13;8.57;;;1.90;99.90;;;;;;5029268;28;20051;-44
2024/01/16 11:26:31;;;;;;;15.02;8.77;;;1.80;99.90;;;;;;5027944;28;20099;-42
2024/01/16 11:29:27;;;;;;;14.27;7.75;;;1.80;99.90;;;;;;5034570;28;20061;-40
2024/01/16 11:31:56;;;;;;;15.38;7.72;;;2.00;99.90;;;;;;5034445;28;20046;-41
2024/01/16 11:34:51;;;;;;;15.65;8.45;;;1.90;99.90;;;;;;5022086;28;20057;-38
2024/01/16 11:37:33;;;;;;;16.92;8.82;;;2.00;99.90;;;;;;5030238;28;20060;-39
2024/01/16 11:40:21;;;;;;;14.77;8.38;;;2.10;99.90;;;;;;5031282;28;20171;-39
2024/01/16 11:42:50;;;;;;;14.15;8.30;;;2.00;99.90;;;;;;5027381;28;20064;-40
2024/01/16 11:45:29;;;;;;;13.23;7.60;;;1.80;99.90;;;;;;5034165;28;20431;-36
2024/01/16 11:48:15;;;;;;;14.88;7.32;;;1.90;99.90;;;;;;5034516;28;20115;-40
2024/01/16 11:50:43;;;;;;;12.88;7.03;;;1.90;99.90;;;;;;5031901;28;20068;-43
2024/01/16 11:53:33;;;;;;;12.32;7.35;;;2.00;99.90;;;;;;5036137;28;20080;-40
2024/01/16 11:56:18;;;;;;;14.80;7.38;;;2.20;99.90;;;;;;5029065;28;20119;-42
2024/01/16 11:59:42;;;;;;;12.27;7.05;;;2.10;99.90;;;;;;5023749;28;20532;-44
2024/01/16 12:02:18;;;;;;;17.40;7.15;;;2.00;99.90;;;;;;5030931;28;20141;-38
2024/01/16 12:04:54;;;;;;;12.32;7.45;;;2.40;99.90;;;;;;5031927;28;20125;-43
2024/01/16 12:07:22;;;;;;;16.00;7.03;;;2.60;99.90;;;;;;5033181;28;20095;-40
2024/01/16 12:09:49;;;;;;;12.75;7.20;;;3.00;99.90;;;;;;5035686;28;20502;-39
2024/01/16 12:12:18;;;;;;;11.27;7.28;;;3.30;99.90;;;;;;5034706;28;20049;-40
2024/01/16 12:14:53;;;;;;;13.65;7.45;;;3.10;99.90;;;;;;5031445;28;20038;-39
2024/01/16 12:17:20;;;;;;;13.48;7.65;;;2.80;99.90;;;;;;5031990;28;20138;-38
2024/01/16 12:19:49;;;;;;;9.63;7.05;;;2.40;99.90;;;;;;5034559;28;20038;-41
2024/01/16 12:22:22;;;;;;;11.57;6.93;;;2.40;99.90;;;;;;5035211;28;20049;-39
2024/01/16 12:24:49;;;;;;;11.88;7.47;;;2.60;99.90;;;;;;5034449;28;20045;-40
2024/01/16 12:27:16;;;;;;;11.40;7.20;;;2.80;99.90;;;;;;5037661;28;20080;-39
2024/01/16 12:29:43;;;;;;;11.95;7.18;;;2.90;99.90;;;;;;5032344;28;20049;-43
2024/01/16 12:32:11;;;;;;;12.68;7.65;;;2.90;99.90;;;;;;5033001;28;20425;-38
2024/01/16 12:34:49;;;;;;;11.00;7.57;;;3.00;99.90;;;;;;5033156;28;20049;-39
2024/01/16 12:37:16;;;;;;;11.93;7.82;;;3.20;99.90;;;;;;5030179;28;20052;-38
2024/01/16 12:39:44;;;;;;;15.23;7.63;;;3.30;99.90;;;;;;5034119;28;20073;-43
2024/01/16 12:42:12;;;;;;;13.05;7.57;;;3.60;99.90;;;;;;5032221;28;20269;-42
2024/01/16 12:44:39;;;;;;;10.80;7.13;;;3.80;99.90;;;;;;5033810;28;20123;-40
2024/01/16 12:47:07;;;;;;;15.60;7.78;;;4.20;99.90;;;;;;5030607;28;20045;-40